Time;durP1;ratioP1;P1;durP2;ratioP2;P2;SDS_P1;SDS_P2;PMS_P1;PMS_P2;Temp;Humidity;BMP_temperature;BMP_pressure;BME280_temperature;BME280_humidity;BME280_pressure;Samples;Min_cycle;Max_cycle;Signal;HPM_P1;HPM_P2
2024/02/15 00:00:16;;;;;;;10.52;4.80;;;12.70;99.90;;;;;;4938164;28;35631;-78
2024/02/15 00:02:46;;;;;;;12.52;5.38;;;12.70;99.90;;;;;;4935128;28;38384;-78
2024/02/15 00:05:14;;;;;;;12.80;5.70;;;12.80;99.90;;;;;;4936965;28;37519;-79
2024/02/15 00:07:40;;;;;;;15.48;5.70;;;12.80;99.90;;;;;;4936041;28;37242;-78
2024/02/15 00:10:08;;;;;;;11.85;5.72;;;12.80;99.90;;;;;;4932341;28;36363;-79
2024/02/15 00:12:35;;;;;;;16.67;7.13;;;12.80;99.90;;;;;;4935812;29;38472;-78
2024/02/15 00:15:02;;;;;;;16.63;7.47;;;12.80;99.90;;;;;;4927808;28;37155;-78
2024/02/15 00:17:32;;;;;;;18.95;8.25;;;12.80;99.90;;;;;;4933204;28;38027;-78
2024/02/15 00:19:58;;;;;;;20.60;7.95;;;12.80;99.90;;;;;;4934462;29;36845;-77
2024/02/15 00:22:24;;;;;;;17.10;7.32;;;12.80;99.90;;;;;;4937748;28;39333;-79
2024/02/15 00:24:50;;;;;;;17.02;7.57;;;12.80;99.90;;;;;;4928604;28;39888;-78
2024/02/15 00:27:17;;;;;;;17.35;7.78;;;12.80;99.90;;;;;;4933328;28;37958;-79
2024/02/15 00:29:43;;;;;;;23.42;8.93;;;12.80;99.90;;;;;;4933435;29;34571;-78
2024/02/15 00:32:10;;;;;;;18.80;8.32;;;12.80;99.90;;;;;;4933657;28;39951;-77
2024/02/15 00:34:38;;;;;;;21.90;8.35;;;12.80;99.90;;;;;;4929689;29;37509;-78
2024/02/15 00:37:05;;;;;;;19.42;9.80;;;12.80;99.90;;;;;;4931412;28;37008;-77
2024/02/15 00:39:31;;;;;;;15.07;8.63;;;12.80;99.90;;;;;;4933924;28;35108;-78
2024/02/15 00:42:00;;;;;;;20.60;9.55;;;12.80;99.90;;;;;;4931525;29;38331;-78
2024/02/15 00:44:27;;;;;;;22.90;10.30;;;12.70;99.90;;;;;;4933990;28;38805;-78
2024/02/15 00:46:53;;;;;;;18.33;9.20;;;12.80;99.90;;;;;;4931780;29;37350;-78
2024/02/15 00:49:20;;;;;;;16.67;8.95;;;12.70;99.90;;;;;;4931084;28;37402;-78
2024/02/15 00:51:47;;;;;;;20.85;9.38;;;12.70;99.90;;;;;;4929169;29;38037;-78
2024/02/15 00:54:15;;;;;;;20.30;8.93;;;12.70;99.90;;;;;;4931417;28;38354;-78
2024/02/15 00:56:41;;;;;;;32.25;10.18;;;12.70;99.90;;;;;;4932787;28;38116;-78
2024/02/15 00:59:07;;;;;;;20.52;9.32;;;12.70;99.90;;;;;;4931365;28;36439;-78
2024/02/15 01:01:33;;;;;;;23.35;11.02;;;12.70;99.90;;;;;;4933019;28;37427;-79
2024/02/15 01:03:59;;;;;;;18.10;8.93;;;12.70;99.90;;;;;;4936475;28;37575;-78
2024/02/15 01:06:26;;;;;;;21.90;9.50;;;12.70;99.90;;;;;;4937250;28;38505;-79
2024/02/15 01:08:52;;;;;;;20.73;10.02;;;12.70;99.90;;;;;;4937259;29;37334;-79
2024/02/15 01:11:25;;;;;;;24.17;11.00;;;12.70;99.90;;;;;;4934421;28;37887;-78
2024/02/15 01:13:52;;;;;;;22.48;9.55;;;12.60;99.90;;;;;;4938561;29;37677;-77
2024/02/15 01:16:19;;;;;;;20.17;9.07;;;12.60;99.90;;;;;;4934844;28;39370;-80
2024/02/15 01:18:45;;;;;;;24.60;9.55;;;12.60;99.90;;;;;;4937553;28;36723;-78
2024/02/15 01:21:11;;;;;;;26.73;10.32;;;12.60;99.90;;;;;;4934325;28;39870;-79
2024/02/15 01:23:37;;;;;;;21.25;10.05;;;12.60;99.90;;;;;;4937689;28;37114;-78
2024/02/15 01:26:04;;;;;;;20.77;9.30;;;12.70;99.90;;;;;;4933986;28;36916;-78
2024/02/15 01:28:31;;;;;;;17.83;9.63;;;12.70;99.90;;;;;;4937110;28;37747;-78
2024/02/15 01:30:57;;;;;;;27.73;9.52;;;12.60;99.90;;;;;;4941086;28;38105;-78
2024/02/15 01:33:23;;;;;;;24.45;9.23;;;12.60;99.90;;;;;;4936974;28;38498;-79
2024/02/15 01:35:49;;;;;;;22.50;9.75;;;12.60;99.90;;;;;;4930526;29;37889;-78
2024/02/15 01:38:15;;;;;;;18.20;9.18;;;12.60;99.90;;;;;;4931771;28;37633;-78
2024/02/15 01:40:42;;;;;;;17.90;9.10;;;12.60;99.90;;;;;;4930911;29;38080;-78
2024/02/15 01:43:08;;;;;;;22.38;9.43;;;12.60;99.90;;;;;;4929999;28;37801;-78
2024/02/15 01:45:35;;;;;;;17.05;9.45;;;12.60;99.90;;;;;;4934582;28;37316;-78
2024/02/15 01:48:03;;;;;;;18.58;9.45;;;12.60;99.90;;;;;;4948479;28;38311;-79
2024/02/15 01:50:32;;;;;;;22.15;9.05;;;12.60;99.90;;;;;;4938066;28;48720;-78
2024/02/15 01:52:59;;;;;;;24.38;9.90;;;12.60;99.90;;;;;;4939580;28;39909;-78
2024/02/15 01:55:25;;;;;;;19.92;8.45;;;12.60;99.90;;;;;;4937385;28;38339;-78
2024/02/15 01:57:51;;;;;;;19.95;8.27;;;12.70;99.90;;;;;;4930149;28;37259;-78
2024/02/15 02:02:59;;;;;;;21.92;8.23;;;12.70;99.90;;;;;;5401203;23;20254;-80
2024/02/15 02:05:28;;;;;;;15.32;8.13;;;12.70;99.90;;;;;;4921211;29;35327;-81
2024/02/15 02:07:55;;;;;;;21.30;7.95;;;12.70;99.90;;;;;;4931675;28;37981;-79
2024/02/15 02:10:21;;;;;;;16.48;7.13;;;12.70;99.90;;;;;;4930562;28;37966;-78
2024/02/15 02:12:47;;;;;;;18.92;7.07;;;12.80;99.90;;;;;;4941920;28;38884;-79
2024/02/15 02:15:14;;;;;;;18.20;7.07;;;12.70;99.90;;;;;;4925527;29;39441;-79
2024/02/15 02:17:40;;;;;;;16.63;6.85;;;12.70;99.90;;;;;;4926265;29;36360;-81
2024/02/15 02:20:08;;;;;;;17.77;6.93;;;12.80;99.90;;;;;;4933214;28;39367;-78
2024/02/15 02:22:35;;;;;;;18.48;6.72;;;12.80;99.90;;;;;;4918028;28;37588;-78
2024/02/15 02:25:08;;;;;;;21.83;6.00;;;12.80;99.90;;;;;;4917101;28;35532;-77
2024/02/15 02:27:35;;;;;;;21.13;6.65;;;12.80;99.90;;;;;;4917260;29;47363;-79
2024/02/15 02:30:14;;;;;;;17.10;6.05;;;12.80;99.90;;;;;;4914602;28;38676;-79
2024/02/15 02:32:47;;;;;;;16.58;6.47;;;12.80;99.90;;;;;;4917898;29;47265;-78
2024/02/15 02:35:15;;;;;;;19.42;7.20;;;12.80;99.90;;;;;;4916868;29;38761;-78
2024/02/15 02:37:42;;;;;;;19.00;6.78;;;12.80;99.90;;;;;;4912373;28;36436;-77
2024/02/15 02:40:09;;;;;;;25.85;7.85;;;12.80;99.90;;;;;;4916894;29;39238;-78
2024/02/15 02:42:46;;;;;;;20.00;6.85;;;12.80;99.90;;;;;;4923609;28;37398;-79
2024/02/15 02:45:12;;;;;;;17.95;7.05;;;12.70;99.90;;;;;;4916633;29;39121;-79
2024/02/15 02:47:38;;;;;;;19.20;7.20;;;12.70;99.90;;;;;;4919192;29;37931;-79
2024/02/15 02:50:04;;;;;;;12.90;5.90;;;12.70;99.90;;;;;;4919693;29;37885;-78
2024/02/15 02:52:31;;;;;;;22.08;6.82;;;12.80;99.90;;;;;;4919798;29;37644;-78
2024/02/15 02:54:57;;;;;;;20.60;6.93;;;12.70;99.90;;;;;;4924235;29;38638;-79
2024/02/15 02:57:24;;;;;;;22.92;6.50;;;12.80;99.90;;;;;;4941603;28;38355;-78
2024/02/15 02:59:51;;;;;;;19.75;6.75;;;12.80;99.90;;;;;;4922201;28;37952;-79
2024/02/15 03:02:17;;;;;;;20.73;6.80;;;12.80;99.90;;;;;;4927440;28;37080;-78
2024/02/15 03:04:43;;;;;;;17.30;7.22;;;12.70;99.90;;;;;;4935739;28;39380;-79
2024/02/15 03:07:10;;;;;;;21.90;7.32;;;12.70;99.90;;;;;;4921566;29;36511;-79
2024/02/15 03:09:37;;;;;;;23.90;6.95;;;12.70;99.90;;;;;;4917895;28;38194;-79
2024/02/15 03:12:03;;;;;;;16.08;7.32;;;12.70;99.90;;;;;;4930676;28;37090;-79
2024/02/15 03:14:31;;;;;;;15.43;6.55;;;12.60;99.90;;;;;;4931468;28;39039;-78
2024/02/15 03:16:57;;;;;;;24.85;8.63;;;12.60;99.90;;;;;;4916483;29;36634;-79
2024/02/15 03:19:23;;;;;;;22.75;8.10;;;12.60;99.90;;;;;;4914950;29;37544;-79
2024/02/15 03:21:50;;;;;;;21.75;8.23;;;12.60;99.90;;;;;;4918179;29;37899;-79
2024/02/15 03:24:16;;;;;;;17.55;9.38;;;12.60;99.90;;;;;;4940567;29;41012;-80
2024/02/15 03:26:42;;;;;;;20.92;8.52;;;12.60;99.90;;;;;;4928985;29;35096;-80
2024/02/15 03:29:10;;;;;;;22.45;8.48;;;12.60;99.90;;;;;;4926916;28;39116;-80
2024/02/15 03:31:39;;;;;;;24.63;10.85;;;12.60;99.90;;;;;;4940164;29;38887;-80
2024/02/15 03:34:37;;;;;;;;;;;;;;;;;;;;;
2024/02/15 03:37:03;;;;;;;24.52;10.48;;;12.60;99.90;;;;;;4943943;29;38916;-80
2024/02/15 03:39:38;;;;;;;24.65;10.23;;;12.60;99.90;;;;;;4946534;29;39254;-80
2024/02/15 03:42:05;;;;;;;22.58;9.73;;;12.50;99.90;;;;;;4921010;29;38578;-79
2024/02/15 03:44:32;;;;;;;24.52;10.45;;;12.50;99.90;;;;;;4939354;29;38740;-81
2024/02/15 03:46:58;;;;;;;20.52;10.52;;;12.50;99.90;;;;;;4926002;29;36515;-82
2024/02/15 03:49:51;;;;;;;23.48;13.15;;;12.50;99.90;;;;;;4917273;28;37676;-80
2024/02/15 03:52:21;;;;;;;18.95;11.18;;;12.50;99.90;;;;;;4913477;28;38810;-81
2024/02/15 03:54:48;;;;;;;25.63;13.48;;;12.50;99.90;;;;;;4929217;29;37688;-81
2024/02/15 03:57:16;;;;;;;20.52;11.75;;;12.50;99.90;;;;;;4926518;29;35163;-80
2024/02/15 03:59:50;;;;;;;23.98;12.57;;;12.50;99.90;;;;;;4929089;29;37927;-81
2024/02/15 04:02:30;;;;;;;21.98;12.93;;;12.50;99.90;;;;;;4924921;28;37730;-81
2024/02/15 04:04:59;;;;;;;29.95;13.48;;;12.50;99.90;;;;;;4925625;29;38362;-80
2024/02/15 04:07:26;;;;;;;25.88;13.57;;;12.50;99.90;;;;;;4936945;29;36396;-80
2024/02/15 04:09:53;;;;;;;36.42;14.05;;;12.50;99.90;;;;;;4931301;28;39775;-81
2024/02/15 04:12:22;;;;;;;24.13;14.63;;;12.40;99.90;;;;;;4917143;29;37634;-80
2024/02/15 04:14:48;;;;;;;33.63;15.07;;;12.50;99.90;;;;;;4936978;29;38873;-81
2024/02/15 04:17:17;;;;;;;28.58;14.82;;;12.50;99.90;;;;;;4951304;28;38711;-81
2024/02/15 04:19:46;;;;;;;30.08;14.35;;;12.50;99.90;;;;;;4942127;29;40459;-81
2024/02/15 04:22:16;;;;;;;25.08;14.65;;;12.50;99.90;;;;;;4927066;29;38678;-82
2024/02/15 04:24:43;;;;;;;33.33;15.35;;;12.50;99.90;;;;;;4932105;29;36654;-81
2024/02/15 04:27:13;;;;;;;33.33;14.45;;;12.50;99.90;;;;;;4946410;28;37099;-79
2024/02/15 04:29:43;;;;;;;26.40;13.13;;;12.50;99.90;;;;;;4930756;28;38443;-82
2024/02/15 04:32:11;;;;;;;26.30;13.70;;;12.50;99.90;;;;;;4921801;29;37223;-81
2024/02/15 04:34:38;;;;;;;25.27;11.57;;;12.50;99.90;;;;;;4923427;29;37049;-81
2024/02/15 04:37:13;;;;;;;27.85;12.63;;;12.50;99.90;;;;;;4918930;29;36177;-81
2024/02/15 04:39:39;;;;;;;26.52;12.10;;;12.50;99.90;;;;;;4921027;29;38268;-80
2024/02/15 04:42:07;;;;;;;24.33;11.02;;;12.50;99.90;;;;;;4933814;28;37345;-81
2024/02/15 04:44:35;;;;;;;26.63;11.70;;;12.60;99.90;;;;;;4910557;29;38489;-81
2024/02/15 04:47:04;;;;;;;22.00;10.77;;;12.50;99.90;;;;;;4919576;29;37670;-81
2024/02/15 04:49:32;;;;;;;21.70;10.02;;;12.50;99.90;;;;;;4922898;29;47270;-79
2024/02/15 04:52:02;;;;;;;23.50;10.80;;;12.50;99.90;;;;;;4912062;28;37819;-80
2024/02/15 04:54:29;;;;;;;23.58;9.85;;;12.50;99.90;;;;;;4937747;29;49620;-80
2024/02/15 04:56:58;;;;;;;31.10;11.15;;;12.50;99.90;;;;;;4935380;28;37799;-80
2024/02/15 04:59:29;;;;;;;20.75;10.52;;;12.50;99.90;;;;;;4934957;29;39139;-80
2024/02/15 05:01:58;;;;;;;17.88;9.57;;;12.50;99.90;;;;;;4923500;29;38360;-79
2024/02/15 05:04:27;;;;;;;20.55;9.95;;;12.50;99.90;;;;;;4915958;29;37561;-80
2024/02/15 05:06:53;;;;;;;22.05;10.07;;;12.50;99.90;;;;;;4945384;28;38526;-81
2024/02/15 05:09:19;;;;;;;22.23;9.60;;;12.50;99.90;;;;;;4938533;28;37941;-80
2024/02/15 05:11:47;;;;;;;26.48;9.85;;;12.60;99.90;;;;;;4942476;28;37865;-82
2024/02/15 05:14:23;;;;;;;22.05;10.50;;;12.50;99.90;;;;;;4958684;28;38665;-82
2024/02/15 05:16:49;;;;;;;22.77;9.73;;;12.50;99.90;;;;;;4951766;29;37963;-81
2024/02/15 05:19:16;;;;;;;21.95;9.25;;;12.60;99.90;;;;;;4946120;28;37590;-84
2024/02/15 05:21:46;;;;;;;24.83;10.38;;;12.60;99.90;;;;;;4927508;28;37242;-83
2024/02/15 05:24:19;;;;;;;25.05;10.65;;;12.60;99.90;;;;;;4932667;28;39415;-81
2024/02/15 05:26:52;;;;;;;;;;;12.60;99.90;;;;;;4966466;28;37363;-80
2024/02/15 05:29:20;;;;;;;26.02;10.75;;;12.50;99.90;;;;;;4939237;29;39678;-79
2024/02/15 05:31:50;;;;;;;27.38;11.45;;;12.50;99.90;;;;;;4950234;28;39502;-79
2024/02/15 05:34:16;;;;;;;22.77;11.43;;;12.50;99.90;;;;;;4954977;28;39288;-81
2024/02/15 05:36:42;;;;;;;20.45;10.20;;;12.50;99.90;;;;;;4953094;28;38903;-80
2024/02/15 05:39:11;;;;;;;22.10;11.55;;;12.50;99.90;;;;;;4937856;28;38194;-80
2024/02/15 05:41:37;;;;;;;27.35;12.30;;;12.50;99.90;;;;;;4937765;29;37649;-79
2024/02/15 05:44:06;;;;;;;22.10;12.80;;;12.50;99.90;;;;;;4944446;28;36534;-80
2024/02/15 05:46:37;;;;;;;29.50;13.10;;;12.50;99.90;;;;;;4951209;28;37850;-80
2024/02/15 05:49:04;;;;;;;23.83;12.90;;;12.50;99.90;;;;;;4915860;29;37719;-79
2024/02/15 05:51:31;;;;;;;22.17;13.07;;;12.50;99.90;;;;;;4936709;28;37732;-79
2024/02/15 05:54:00;;;;;;;20.80;13.98;;;12.50;99.90;;;;;;4941124;29;40348;-81
2024/02/15 05:56:29;;;;;;;29.10;14.00;;;12.50;99.90;;;;;;4954799;28;48702;-81
2024/02/15 05:58:55;;;;;;;25.05;13.07;;;12.50;99.90;;;;;;4940033;28;37964;-80
2024/02/15 06:01:54;;;;;;;25.83;15.73;;;12.50;99.90;;;;;;4900559;29;37911;-79
2024/02/15 06:04:25;;;;;;;22.60;13.02;;;12.50;99.90;;;;;;4901261;29;38537;-80
2024/02/15 06:07:11;;;;;;;22.70;14.00;;;12.50;99.90;;;;;;4949431;29;36869;-82
2024/02/15 06:09:40;;;;;;;22.83;15.18;;;12.50;99.90;;;;;;4920472;29;47216;-81
2024/02/15 06:12:06;;;;;;;22.77;14.00;;;12.50;99.90;;;;;;4949343;28;39697;-78
2024/02/15 06:14:39;;;;;;;18.88;13.45;;;12.50;99.90;;;;;;4948026;29;38623;-79
2024/02/15 06:17:11;;;;;;;18.88;13.25;;;12.50;99.90;;;;;;4934186;29;36716;-81
2024/02/15 06:19:50;;;;;;;24.05;13.93;;;12.50;99.90;;;;;;4935039;29;39374;-80
2024/02/15 06:22:30;;;;;;;26.65;14.98;;;12.50;99.90;;;;;;4933863;29;38878;-80
2024/02/15 06:24:57;;;;;;;28.10;14.48;;;12.50;99.90;;;;;;4942362;28;38018;-79
2024/02/15 06:27:24;;;;;;;25.25;14.27;;;12.50;99.90;;;;;;4941490;28;38360;-79
2024/02/15 06:40:54;;;;;;;20.58;11.90;;;12.50;99.90;;;;;;4939629;28;39269;-80
2024/02/15 06:43:21;;;;;;;22.65;12.57;;;12.50;99.90;;;;;;4939914;28;38393;-80
2024/02/15 06:45:51;;;;;;;20.20;11.90;;;12.50;99.90;;;;;;4943227;28;37474;-81
2024/02/15 06:48:17;;;;;;;21.65;11.75;;;12.50;99.90;;;;;;4940634;28;37339;-79
2024/02/15 06:50:43;;;;;;;28.38;12.68;;;12.50;99.90;;;;;;4930811;28;37919;-79
2024/02/15 06:53:10;;;;;;;22.17;10.98;;;12.50;99.90;;;;;;4936837;29;37253;-80
2024/02/15 06:55:39;;;;;;;25.58;11.50;;;12.50;99.90;;;;;;4942807;29;37375;-81
2024/02/15 06:58:05;;;;;;;19.15;11.52;;;12.50;99.90;;;;;;4951466;28;38088;-81
2024/02/15 07:00:32;;;;;;;19.55;9.93;;;12.50;99.90;;;;;;4942961;29;40004;-80
2024/02/15 07:02:58;;;;;;;24.10;9.27;;;12.50;99.90;;;;;;4951086;28;38646;-80
2024/02/15 07:05:27;;;;;;;19.80;9.55;;;12.50;99.90;;;;;;4943593;28;37136;-82
2024/02/15 07:07:56;;;;;;;21.48;10.07;;;12.50;99.90;;;;;;4948529;28;38763;-79
2024/02/15 07:10:22;;;;;;;21.65;10.10;;;12.50;99.90;;;;;;4952998;28;39216;-82
2024/02/15 07:12:50;;;;;;;18.85;10.02;;;12.50;99.90;;;;;;4950479;28;39594;-81
2024/02/15 07:15:17;;;;;;;19.73;9.18;;;12.50;99.90;;;;;;4931036;28;38545;-80
2024/02/15 07:17:43;;;;;;;22.67;9.23;;;12.50;99.90;;;;;;4945618;28;37953;-80
2024/02/15 07:20:17;;;;;;;20.77;9.80;;;12.50;99.90;;;;;;4923415;28;39252;-80
2024/02/15 07:22:45;;;;;;;23.52;8.85;;;12.50;99.90;;;;;;4950000;28;37828;-80
2024/02/15 07:25:11;;;;;;;21.92;9.75;;;12.50;99.90;;;;;;4931801;29;37562;-81
2024/02/15 07:27:41;;;;;;;19.00;8.75;;;12.50;99.90;;;;;;4952843;29;37694;-80
2024/02/15 07:30:08;;;;;;;21.92;9.88;;;12.50;99.90;;;;;;4948528;28;40193;-81
2024/02/15 07:32:35;;;;;;;21.02;8.77;;;12.50;99.90;;;;;;4940531;29;37932;-79
2024/02/15 07:35:01;;;;;;;19.85;8.38;;;12.50;99.90;;;;;;4922490;29;38127;-80
2024/02/15 07:37:29;;;;;;;24.00;9.45;;;12.50;99.90;;;;;;4924303;29;37975;-80
2024/02/15 07:39:57;;;;;;;22.33;9.55;;;12.50;99.90;;;;;;4952567;28;39038;-79
2024/02/15 07:42:25;;;;;;;16.38;9.57;;;12.50;99.90;;;;;;4942993;28;37785;-81
2024/02/15 07:44:54;;;;;;;17.33;8.68;;;12.50;99.90;;;;;;4937756;28;37648;-80
2024/02/15 07:47:45;;;;;;;19.70;9.35;;;12.50;99.90;;;;;;4935233;28;37413;-81
2024/02/15 07:50:19;;;;;;;16.17;8.20;;;12.50;99.90;;;;;;4940801;29;39317;-81
2024/02/15 07:52:51;;;;;;;20.77;8.32;;;12.50;99.90;;;;;;4958396;28;38114;-81
2024/02/15 07:55:17;;;;;;;17.73;8.07;;;12.50;99.90;;;;;;4950080;28;39785;-80
2024/02/15 07:57:43;;;;;;;14.38;8.13;;;12.50;99.90;;;;;;4945700;28;36897;-81
2024/02/15 08:00:11;;;;;;;15.48;6.53;;;12.50;99.90;;;;;;4942186;28;37818;-80
2024/02/15 08:02:40;;;;;;;19.73;7.03;;;12.50;99.90;;;;;;4948254;28;39156;-82
2024/02/15 08:05:20;;;;;;;15.68;6.50;;;12.50;99.90;;;;;;4941885;28;37320;-82
2024/02/15 08:07:47;;;;;;;19.25;7.28;;;12.50;99.90;;;;;;4923249;29;37179;-82
2024/02/15 08:10:15;;;;;;;15.63;6.53;;;12.50;99.90;;;;;;4942118;28;39324;-81
2024/02/15 08:12:43;;;;;;;17.20;6.72;;;12.50;99.90;;;;;;4942221;28;37467;-82
2024/02/15 08:15:44;;;;;;;16.20;6.90;;;12.60;99.90;;;;;;4923174;28;36568;-84
2024/02/15 08:18:12;;;;;;;15.43;6.43;;;12.50;99.90;;;;;;4953355;28;39827;-80
2024/02/15 08:20:53;;;;;;;18.05;6.43;;;12.60;99.90;;;;;;4934053;29;39228;-83
2024/02/15 08:23:20;;;;;;;12.93;6.53;;;12.60;99.90;;;;;;4944494;28;39671;-82
2024/02/15 08:25:52;;;;;;;11.68;6.95;;;12.60;99.90;;;;;;4933244;29;38373;-84
2024/02/15 08:28:23;;;;;;;15.82;6.15;;;12.60;99.90;;;;;;4935626;29;38561;-84
2024/02/15 08:30:51;;;;;;;14.30;6.55;;;12.60;99.90;;;;;;4910741;29;39119;-82
2024/02/15 08:33:53;;;;;;;14.85;6.53;;;12.60;99.90;;;;;;4917269;28;38368;-86
2024/02/15 08:36:32;;;;;;;12.98;6.07;;;12.60;99.90;;;;;;4906450;28;39003;-85
2024/02/15 08:39:16;;;;;;;13.00;6.05;;;12.60;99.90;;;;;;4937161;28;37112;-83
2024/02/15 08:41:42;;;;;;;9.77;5.53;;;12.60;99.90;;;;;;4929091;29;48422;-78
2024/02/15 08:44:11;;;;;;;15.93;5.07;;;12.60;99.90;;;;;;4937235;28;38581;-79
2024/02/15 08:46:38;;;;;;;11.95;5.22;;;12.70;99.90;;;;;;4931371;29;37540;-81
2024/02/15 08:49:40;;;;;;;;;;;;;;;;;;;;;
2024/02/15 08:52:31;;;;;;;13.07;5.68;;;12.70;99.90;;;;;;4787485;29;38091;-82
2024/02/15 08:54:59;;;;;;;14.50;5.22;;;12.70;99.90;;;;;;4857470;29;38534;-81
2024/02/15 08:57:35;;;;;;;13.50;5.80;;;12.60;99.90;;;;;;4902541;28;37551;-83
2024/02/15 09:00:13;;;;;;;11.48;5.07;;;12.70;99.90;;;;;;4948658;29;37435;-83
2024/02/15 09:02:40;;;;;;;11.43;5.30;;;12.70;99.90;;;;;;4941694;29;39830;-82
2024/02/15 09:05:07;;;;;;;13.38;5.45;;;12.70;99.90;;;;;;4933216;29;39396;-82
2024/02/15 09:07:33;;;;;;;10.68;5.05;;;12.70;99.90;;;;;;4952816;28;38410;-82
2024/02/15 09:10:00;;;;;;;11.25;5.28;;;12.70;99.90;;;;;;4934620;29;37477;-80
2024/02/15 09:12:28;;;;;;;11.63;4.93;;;12.70;99.90;;;;;;4923959;28;38616;-81
2024/02/15 09:14:55;;;;;;;11.40;5.93;;;12.80;99.90;;;;;;4932709;29;38913;-82
2024/02/15 09:17:22;;;;;;;11.63;4.63;;;12.80;99.90;;;;;;4910283;28;37979;-80
2024/02/15 09:19:49;;;;;;;17.92;5.15;;;12.80;99.90;;;;;;4923213;28;37151;-81
2024/02/15 09:22:15;;;;;;;13.70;4.95;;;12.90;99.90;;;;;;4937520;28;38657;-83
2024/02/15 09:24:42;;;;;;;9.60;4.20;;;12.90;99.90;;;;;;4942047;28;39380;-83
2024/02/15 09:27:11;;;;;;;9.10;4.05;;;13.00;99.90;;;;;;4957163;28;38621;-82
2024/02/15 09:29:40;;;;;;;7.40;4.10;;;13.00;99.90;;;;;;4944050;29;36405;-81
2024/02/15 09:32:09;;;;;;;7.72;3.95;;;13.10;99.90;;;;;;4937441;29;39516;-82
2024/02/15 09:34:35;;;;;;;9.48;4.88;;;13.10;99.90;;;;;;4935560;28;38393;-80
2024/02/15 09:37:01;;;;;;;15.40;4.00;;;13.10;99.90;;;;;;4940257;28;39431;-80
2024/02/15 09:39:28;;;;;;;11.07;4.15;;;13.20;99.90;;;;;;4919388;29;37031;-80
2024/02/15 09:41:58;;;;;;;10.98;4.82;;;13.20;99.90;;;;;;4924678;28;38305;-81
2024/02/15 09:44:27;;;;;;;10.32;4.15;;;13.20;99.90;;;;;;4925827;29;37848;-82
2024/02/15 09:47:08;;;;;;;9.18;3.60;;;13.20;99.90;;;;;;4935911;29;37238;-81
2024/02/15 09:49:39;;;;;;;14.02;4.28;;;13.20;99.90;;;;;;4944165;28;48055;-81
2024/02/15 09:52:15;;;;;;;13.05;4.05;;;13.20;99.90;;;;;;4918238;29;38127;-81
2024/02/15 09:54:45;;;;;;;9.77;4.30;;;13.20;99.90;;;;;;4928553;28;37697;-82
2024/02/15 09:57:20;;;;;;;7.88;3.60;;;13.30;99.90;;;;;;4946250;28;38350;-82
2024/02/15 09:59:48;;;;;;;12.88;3.78;;;13.40;99.90;;;;;;4947262;29;36758;-81
2024/02/15 10:02:30;;;;;;;6.95;3.58;;;13.50;99.90;;;;;;4946944;28;39548;-82
2024/02/15 10:05:00;;;;;;;9.35;3.40;;;13.50;99.90;;;;;;4940708;29;37798;-82
2024/02/15 10:07:28;;;;;;;12.25;3.95;;;13.60;99.90;;;;;;4932898;28;36725;-82
2024/02/15 10:10:14;;;;;;;9.23;4.45;;;13.60;99.90;;;;;;4943380;28;36579;-80
2024/02/15 10:12:40;;;;;;;13.23;4.53;;;13.60;99.90;;;;;;4944199;28;48801;-80
2024/02/15 10:15:07;;;;;;;8.88;4.40;;;13.70;99.90;;;;;;4940474;28;37877;-80
2024/02/15 10:17:35;;;;;;;8.23;4.20;;;13.70;99.90;;;;;;4932365;28;38754;-80
2024/02/15 10:20:05;;;;;;;12.52;4.25;;;13.90;99.90;;;;;;4945025;28;36831;-81
2024/02/15 10:22:32;;;;;;;12.35;3.85;;;14.00;99.90;;;;;;4937397;28;47290;-80
2024/02/15 10:25:14;;;;;;;9.07;4.05;;;14.00;99.90;;;;;;4932640;28;37554;-81
2024/02/15 10:27:46;;;;;;;9.45;5.15;;;14.00;99.90;;;;;;4929707;29;47509;-80
2024/02/15 10:30:23;;;;;;;8.77;4.10;;;14.10;99.90;;;;;;4928512;29;37434;-81
2024/02/15 10:32:49;;;;;;;8.38;5.03;;;14.00;99.90;;;;;;4928709;28;38631;-81
2024/02/15 10:35:20;;;;;;;7.47;3.97;;;14.00;99.90;;;;;;4948238;28;38827;-80
2024/02/15 10:37:51;;;;;;;7.72;4.20;;;14.00;99.90;;;;;;4944947;28;37585;-80
2024/02/15 10:40:18;;;;;;;6.97;4.18;;;14.10;99.90;;;;;;4931474;28;36827;-81
2024/02/15 10:42:48;;;;;;;7.28;4.47;;;14.00;99.90;;;;;;4948192;28;37980;-81
2024/02/15 10:45:17;;;;;;;9.82;4.50;;;14.00;99.90;;;;;;4947916;28;37481;-81
2024/02/15 10:47:50;;;;;;;7.95;4.93;;;14.00;99.90;;;;;;4936976;29;38175;-80
2024/02/15 10:50:17;;;;;;;9.27;5.50;;;14.00;99.90;;;;;;4941756;28;36324;-81
2024/02/15 10:53:26;;;;;;;13.43;5.63;;;14.10;99.90;;;;;;4944105;29;37442;-82
2024/02/15 10:56:19;;;;;;;9.40;5.57;;;14.20;99.90;;;;;;4920260;29;47568;-80
2024/02/15 10:59:07;;;;;;;9.77;5.15;;;14.20;99.90;;;;;;4927544;29;47841;-81
2024/02/15 11:01:37;;;;;;;11.60;4.32;;;14.30;99.90;;;;;;4950272;28;48996;-80
2024/02/15 11:04:10;;;;;;;12.95;5.07;;;14.30;99.90;;;;;;4953810;28;40125;-82
2024/02/15 11:06:41;;;;;;;8.48;4.30;;;14.40;99.90;;;;;;4922771;28;39146;-82
2024/02/15 11:09:15;;;;;;;8.50;4.28;;;14.40;99.90;;;;;;4960949;28;38911;-81
2024/02/15 11:11:44;;;;;;;8.35;4.32;;;14.50;99.90;;;;;;4948596;28;36174;-80
2024/02/15 11:14:47;;;;;;;11.93;4.05;;;14.60;99.90;;;;;;4955487;28;38700;-81
2024/02/15 11:17:43;;;;;;;9.13;3.33;;;14.60;99.90;;;;;;4944023;28;38532;-83
2024/02/15 11:20:14;;;;;;;5.53;2.97;;;14.60;99.90;;;;;;4949636;28;37646;-81
2024/02/15 11:22:57;;;;;;;4.35;2.60;;;14.60;99.90;;;;;;4944173;29;36378;-81
2024/02/15 11:25:39;;;;;;;;;;;14.70;99.90;;;;;;4947517;28;40135;-81
2024/02/15 11:28:38;;;;;;;7.43;2.53;;;14.70;99.90;;;;;;4936554;28;37981;-80
2024/02/15 11:31:08;;;;;;;7.53;3.42;;;14.80;99.90;;;;;;4958520;28;39554;-81
2024/02/15 11:33:37;;;;;;;9.57;3.25;;;14.80;99.90;;;;;;4936258;29;37698;-81
2024/02/15 11:36:09;;;;;;;9.20;3.53;;;14.90;99.90;;;;;;4950427;28;38727;-81
2024/02/15 11:38:37;;;;;;;7.18;3.08;;;14.80;99.90;;;;;;4919571;29;38320;-80
2024/02/15 11:41:08;;;;;;;7.32;2.95;;;14.90;99.90;;;;;;4951811;28;38699;-81
2024/02/15 11:43:45;;;;;;;9.70;3.08;;;15.00;99.90;;;;;;4944254;28;47028;-81
2024/02/15 11:46:17;;;;;;;10.95;3.35;;;15.10;99.90;;;;;;4956480;28;39460;-81
2024/02/15 11:48:54;;;;;;;6.45;2.45;;;15.10;99.90;;;;;;4952258;28;37515;-81
2024/02/15 11:51:36;;;;;;;7.00;2.50;;;15.30;99.90;;;;;;4950949;28;36879;-80
2024/02/15 11:54:08;;;;;;;7.00;2.53;;;15.50;99.90;;;;;;4917899;28;36627;-81
2024/02/15 11:56:44;;;;;;;6.13;2.40;;;15.60;99.90;;;;;;4933532;28;40268;-80
2024/02/15 11:59:29;;;;;;;7.13;2.72;;;15.80;99.90;;;;;;4928071;28;37564;-81
2024/02/15 12:19:18;;;;;;;8.65;2.40;;;16.20;99.90;;;;;;5353342;23;50009;-81
2024/02/15 12:21:47;;;;;;;7.15;1.95;;;16.20;99.90;;;;;;4960169;28;38400;-80
2024/02/15 12:24:15;;;;;;;5.30;2.33;;;16.20;99.90;;;;;;4963946;28;37206;-81
2024/02/15 12:26:43;;;;;;;4.70;1.80;;;16.20;99.90;;;;;;4955575;28;37476;-80
2024/02/15 12:29:12;;;;;;;4.95;1.92;;;16.10;99.90;;;;;;4964908;28;37665;-79
2024/02/15 12:31:44;;;;;;;4.97;2.08;;;16.10;99.90;;;;;;4961588;28;38498;-81
2024/02/15 12:34:12;;;;;;;5.78;2.65;;;16.00;99.90;;;;;;4956536;28;38356;-80
2024/02/15 12:36:42;;;;;;;5.68;2.50;;;16.00;99.90;;;;;;4959962;28;37239;-81
2024/02/15 12:39:12;;;;;;;7.15;2.53;;;16.00;99.90;;;;;;4956512;28;38262;-81
2024/02/15 12:41:49;;;;;;;6.30;2.63;;;16.20;99.90;;;;;;4951289;28;38615;-81
2024/02/15 12:44:22;;;;;;;6.28;2.50;;;16.30;99.90;;;;;;4957672;28;37962;-79
2024/02/15 12:46:59;;;;;;;7.18;2.67;;;16.40;99.90;;;;;;4957563;28;38020;-80
2024/02/15 12:49:29;;;;;;;5.05;2.63;;;16.40;99.90;;;;;;4948160;28;36803;-80
2024/02/15 12:52:38;;;;;;;6.93;2.92;;;16.50;99.90;;;;;;4950456;28;37810;-79
2024/02/15 12:55:08;;;;;;;7.63;3.00;;;16.70;99.90;;;;;;4951064;28;47590;-80
2024/02/15 12:57:41;;;;;;;9.15;2.92;;;16.60;99.90;;;;;;4945746;28;47419;-79
2024/02/15 13:00:12;;;;;;;10.05;3.40;;;16.70;99.90;;;;;;4952048;28;38910;-80
2024/02/15 13:02:39;;;;;;;10.93;3.40;;;16.70;99.90;;;;;;4957854;28;38122;-80
2024/02/15 13:05:09;;;;;;;5.80;3.00;;;16.70;99.90;;;;;;4959263;28;38122;-80
2024/02/15 13:07:37;;;;;;;8.27;3.20;;;16.70;99.90;;;;;;4958450;28;48517;-81
2024/02/15 13:10:06;;;;;;;8.65;3.30;;;16.70;99.90;;;;;;4966938;28;37877;-80
2024/02/15 13:12:35;;;;;;;8.05;2.95;;;16.60;99.90;;;;;;4979703;28;48720;-80
2024/02/15 13:15:06;;;;;;;6.78;4.00;;;16.50;99.90;;;;;;4965415;28;38031;-80
2024/02/15 13:17:48;;;;;;;9.45;2.80;;;16.50;99.90;;;;;;4971307;28;50263;-80
2024/02/15 13:20:30;;;;;;;9.02;2.83;;;16.60;99.90;;;;;;4944751;28;39499;-80
2024/02/15 13:23:00;;;;;;;11.02;3.38;;;16.60;98.20;;;;;;4968153;28;41109;-81
2024/02/15 13:25:26;;;;;;;12.43;3.20;;;16.60;89.90;;;;;;4963121;28;38361;-80
2024/02/15 13:27:53;;;;;;;5.68;2.58;;;16.60;85.90;;;;;;4959473;28;36132;-81